Time;durP1;ratioP1;P1;durP2;ratioP2;P2;SDS_P1;SDS_P2;PMS_P1;PMS_P2;Temp;Humidity;BMP_temperature;BMP_pressure;BME280_temperature;BME280_humidity;BME280_pressure;Samples;Min_cycle;Max_cycle;Signal;HPM_P1;HPM_P2
2023/05/05 00:01:44;;;;;;;3.80;1.17;;;;;;;13.91;70.65;99817.94;5027315;28;20615;-55
2023/05/05 00:04:10;;;;;;;1.70;1.08;;;;;;;13.90;70.22;99811.03;5021812;28;20053;-56
2023/05/05 00:06:37;;;;;;;2.80;1.15;;;;;;;13.91;70.94;99806.69;5035117;28;20622;-53
2023/05/05 00:09:04;;;;;;;1.83;1.17;;;;;;;13.86;71.06;99812.84;5039849;28;20446;-58
2023/05/05 00:11:30;;;;;;;1.95;1.38;;;;;;;13.85;71.06;99811.13;5037118;28;20072;-53
2023/05/05 00:13:57;;;;;;;2.00;1.05;;;;;;;13.84;71.56;99819.81;5040447;28;21396;-55
2023/05/05 00:16:23;;;;;;;2.08;1.30;;;;;;;13.81;71.46;99817.28;5040647;28;20138;-55
2023/05/05 00:18:50;;;;;;;2.08;1.10;;;;;;;13.79;72.19;99803.44;5039094;28;20060;-52
2023/05/05 00:21:17;;;;;;;1.70;0.90;;;;;;;13.79;71.50;99803.44;5038258;28;20136;-59
2023/05/05 00:23:45;;;;;;;4.07;1.23;;;;;;;13.77;71.65;99810.41;5027805;28;20078;-49
2023/05/05 00:26:14;;;;;;;2.67;1.33;;;;;;;13.77;72.02;99810.41;5022863;28;20132;-51
2023/05/05 00:28:42;;;;;;;3.05;2.33;;;;;;;13.79;71.72;99807.78;5022788;28;20552;-54
2023/05/05 00:31:10;;;;;;;4.78;3.42;;;;;;;13.76;72.00;99803.50;5017559;28;20393;-57
2023/05/05 00:33:38;;;;;;;2.28;1.50;;;;;;;13.77;71.71;99800.00;5017751;28;20054;-60
2023/05/05 00:36:06;;;;;;;2.35;0.93;;;;;;;13.76;72.33;99795.69;5020576;28;20053;-57
2023/05/05 00:38:35;;;;;;;2.50;0.88;;;;;;;13.75;71.87;99801.81;5020173;28;20125;-57
2023/05/05 00:41:03;;;;;;;3.00;1.38;;;;;;;13.75;72.17;99801.81;5023555;28;20041;-56
2023/05/05 00:43:30;;;;;;;1.95;1.65;;;;;;;13.76;72.09;99803.50;5024425;28;20625;-53
2023/05/05 00:46:02;;;;;;;2.25;0.73;;;;;;;13.74;72.24;99800.94;5025655;28;20049;-54
2023/05/05 00:48:32;;;;;;;2.20;1.27;;;;;;;13.75;71.76;99796.59;5032290;28;20048;-52
2023/05/05 00:50:59;;;;;;;2.03;1.63;;;;;;;13.72;72.13;99801.84;5036526;28;20452;-50
2023/05/05 00:53:28;;;;;;;2.22;0.70;;;;;;;13.72;72.12;99801.84;5038235;28;20136;-59
2023/05/05 00:55:56;;;;;;;2.53;1.42;;;;;;;13.70;72.39;99798.41;5037595;28;20389;-53
2023/05/05 00:58:25;;;;;;;1.30;0.65;;;;;;;13.70;71.58;99795.81;5038123;28;20102;-54
2023/05/05 01:00:52;;;;;;;1.85;0.70;;;;;;;13.65;72.61;99795.06;5035829;28;20120;-49
2023/05/05 01:03:19;;;;;;;1.33;0.60;;;;;;;13.64;72.35;99795.94;5037339;28;20507;-54
2023/05/05 01:11:29;;;;;;;1.13;0.43;;;;;;;13.58;72.52;99784.75;5052497;27;20387;-50
2023/05/05 01:16:40;;;;;;;2.33;1.80;;;;;;;13.56;71.91;99789.16;5048360;27;20393;-55
2023/05/05 01:21:47;;;;;;;2.53;2.33;;;;;;;13.52;71.87;99790.09;5032969;27;20394;-52
2023/05/05 01:32:26;;;;;;;0.90;0.60;;;;;;;13.35;72.40;99787.78;5040646;28;20398;-50
2023/05/05 01:34:56;;;;;;;;;;;;;;;13.19;72.69;99784.59;5004992;28;20069;-51
2023/05/05 01:37:31;;;;;;;1.38;0.60;;;;;;;13.26;73.02;99786.19;5003855;28;20020;-55
2023/05/05 01:40:03;;;;;;;1.05;0.52;;;;;;;13.27;73.11;99780.09;5004402;28;20104;-50
2023/05/05 01:42:32;;;;;;;1.13;0.50;;;;;;;13.25;72.19;99781.88;4995167;28;20081;-53
2023/05/05 01:45:02;;;;;;;1.27;0.73;;;;;;;13.24;72.50;99785.34;5006276;28;20154;-55
2023/05/05 01:47:30;;;;;;;2.17;1.98;;;;;;;13.23;71.75;99783.63;5000740;28;20588;-54
2023/05/05 01:49:58;;;;;;;0.88;0.35;;;;;;;13.22;73.06;99781.94;5003482;28;20041;-50
2023/05/05 01:52:26;;;;;;;1.10;0.75;;;;;;;13.20;73.02;99781.09;5000906;28;20085;-45
2023/05/05 01:54:56;;;;;;;0.93;0.47;;;;;;;13.17;72.65;99778.56;5001796;28;20078;-55
2023/05/05 01:57:25;;;;;;;0.95;0.40;;;;;;;13.18;73.48;99775.06;5001863;28;20073;-50
2023/05/05 01:59:52;;;;;;;2.22;0.93;;;;;;;13.15;72.39;99777.72;5004757;28;20048;-50
2023/05/05 02:02:20;;;;;;;0.80;0.40;;;;;;;13.15;72.75;99780.31;5003957;28;20219;-54
2023/05/05 02:04:49;;;;;;;1.13;0.90;;;;;;;13.13;73.40;99782.09;5005749;28;20046;-56
2023/05/05 02:07:17;;;;;;;1.23;0.68;;;;;;;13.13;72.81;99787.31;5005858;28;20134;-49
2023/05/05 02:09:45;;;;;;;0.88;0.50;;;;;;;13.09;74.00;99774.34;5005103;28;20518;-52
2023/05/05 02:12:13;;;;;;;1.92;1.20;;;;;;;13.09;73.48;99786.50;5007751;28;20061;-49
2023/05/05 02:14:41;;;;;;;2.08;0.93;;;;;;;13.07;72.97;99777.88;5003370;28;20132;-57
2023/05/05 02:17:10;;;;;;;2.05;0.70;;;;;;;13.07;73.30;99777.88;5003482;28;20103;-53
2023/05/05 02:19:42;;;;;;;2.03;0.95;;;;;;;13.07;73.65;99788.28;5000079;28;20141;-56
2023/05/05 02:22:09;;;;;;;3.47;1.00;;;;;;;13.06;73.86;99782.19;5000417;28;20112;-49
2023/05/05 02:24:36;;;;;;;2.75;1.20;;;;;;;13.06;74.36;99782.19;4994291;28;20089;-55
2023/05/05 02:27:06;;;;;;;1.73;1.10;;;;;;;13.07;74.04;99788.28;4997684;28;20133;-56
2023/05/05 02:29:35;;;;;;;;;;;;;;;12.91;75.30;99778.13;5000272;28;20496;-51
2023/05/05 02:32:16;;;;;;;1.98;1.33;;;;;;;12.97;74.15;99779.78;5003412;28;20023;-53
2023/05/05 02:34:45;;;;;;;2.88;1.02;;;;;;;13.02;74.38;99774.47;4998361;28;20065;-58
2023/05/05 02:37:18;;;;;;;5.07;1.65;;;;;;;13.01;74.48;99775.38;4999924;28;21628;-55
2023/05/05 02:39:57;;;;;;;2.72;1.38;;;;;;;12.97;74.20;99778.00;4997737;28;20409;-47
2023/05/05 02:42:28;;;;;;;2.58;0.98;;;;;;;12.95;74.28;99778.94;4994027;28;20450;-54
2023/05/05 02:44:58;;;;;;;2.75;1.33;;;;;;;12.93;74.25;99780.69;4987524;28;20081;-55
2023/05/05 02:47:40;;;;;;;3.53;1.52;;;;;;;12.84;74.42;99777.34;4983270;28;20057;-54
2023/05/05 02:50:07;;;;;;;2.05;1.23;;;;;;;12.85;74.61;99781.69;4986910;28;20061;-52
2023/05/05 02:52:35;;;;;;;4.00;1.85;;;;;;;12.84;75.19;99782.56;4984530;28;20054;-56
2023/05/05 02:55:03;;;;;;;3.72;1.20;;;;;;;12.81;74.77;99784.34;4984450;28;20054;-52
2023/05/05 02:57:54;;;;;;;2.88;1.30;;;;;;;12.79;74.48;99786.97;4989296;28;20069;-58
2023/05/05 03:03:12;;;;;;;3.53;1.65;;;;;;;12.77;75.23;99791.31;5032332;27;20403;-47
2023/05/05 03:06:00;;;;;;;3.65;1.50;;;;;;;12.75;74.63;99798.31;4979398;28;20057;-48
2023/05/05 03:08:32;;;;;;;3.17;1.77;;;;;;;12.75;74.96;99798.31;4988851;28;20125;-50
2023/05/05 03:11:05;;;;;;;3.30;1.70;;;;;;;12.71;74.30;99787.09;4975943;28;20074;-53
2023/05/05 03:13:36;;;;;;;3.28;1.92;;;;;;;12.72;74.82;99794.03;4982558;28;20046;-52
2023/05/05 03:16:05;;;;;;;3.10;1.55;;;;;;;12.72;74.44;99782.75;4983439;28;20114;-53
2023/05/05 03:18:34;;;;;;;4.75;1.45;;;;;;;12.71;75.03;99786.25;4983973;28;20493;-50
2023/05/05 03:21:07;;;;;;;3.70;1.60;;;;;;;12.70;75.27;99785.38;4981042;28;20050;-51
2023/05/05 03:23:35;;;;;;;4.75;1.85;;;;;;;12.70;75.40;99787.13;4986506;28;20050;-54
2023/05/05 03:26:01;;;;;;;4.25;3.17;;;;;;;12.68;74.87;99789.75;5002533;28;20620;-55
2023/05/05 03:28:28;;;;;;;4.63;1.67;;;;;;;12.67;75.21;99789.78;5007942;28;20120;-49
2023/05/05 03:30:55;;;;;;;4.90;2.00;;;;;;;12.67;74.43;99790.63;4984008;28;20558;-49
2023/05/05 03:33:21;;;;;;;3.90;1.58;;;;;;;12.68;75.25;99794.09;4994950;28;20046;-48
2023/05/05 03:35:48;;;;;;;3.95;2.17;;;;;;;12.70;73.98;99794.94;4995910;28;20046;-57
2023/05/05 03:38:14;;;;;;;5.22;2.58;;;;;;;12.72;74.43;99790.56;4984566;28;20105;-56
2023/05/05 03:40:41;;;;;;;4.00;2.05;;;;;;;12.73;74.83;99794.84;4980030;28;20054;-50
2023/05/05 03:43:10;;;;;;;5.10;1.65;;;;;;;12.75;75.07;99790.50;4999085;28;20085;-52
2023/05/05 03:45:37;;;;;;;4.82;2.25;;;;;;;12.76;73.98;99794.81;4986968;28;20089;-57
2023/05/05 03:48:04;;;;;;;5.00;1.70;;;;;;;12.73;75.41;99795.72;4980549;28;20050;-57
2023/05/05 03:50:31;;;;;;;3.95;1.98;;;;;;;12.74;74.36;99788.81;4980612;28;20050;-52
2023/05/05 03:52:58;;;;;;;4.60;1.88;;;;;;;12.75;75.10;99781.84;4979429;28;20565;-50
2023/05/05 03:55:24;;;;;;;5.68;3.00;;;;;;;12.77;75.36;99790.50;4979171;28;20394;-51
2023/05/05 03:57:51;;;;;;;3.90;1.73;;;;;;;12.77;74.41;99791.31;4979528;28;20058;-54
2023/05/05 04:00:18;;;;;;;6.63;1.40;;;;;;;12.78;74.86;99793.06;4979409;28;20054;-58
2023/05/05 04:02:44;;;;;;;4.75;1.83;;;;;;;12.78;74.65;99792.19;4978417;28;20486;-53
2023/05/05 04:05:11;;;;;;;5.40;2.22;;;;;;;12.75;74.72;99787.91;4985224;28;20047;-54
2023/05/05 04:07:38;;;;;;;5.35;1.70;;;;;;;12.74;74.69;99794.00;5007087;28;20077;-51
2023/05/05 04:10:05;;;;;;;6.80;3.72;;;;;;;12.75;75.25;99787.91;4982906;28;20375;-53
2023/05/05 04:12:32;;;;;;;4.15;1.58;;;;;;;12.76;75.04;99793.97;4979577;28;20206;-56
2023/05/05 04:14:59;;;;;;;4.45;2.00;;;;;;;12.74;74.89;99794.00;4969583;28;20055;-57
2023/05/05 04:17:25;;;;;;;5.18;1.67;;;;;;;12.75;76.23;99800.91;4972128;28;20046;-53
2023/05/05 04:19:52;;;;;;;8.70;2.17;;;;;;;12.75;75.16;99800.91;4983054;28;20050;-48
2023/05/05 04:22:19;;;;;;;5.32;1.75;;;;;;;12.75;75.88;99798.31;4978659;28;20509;-56
2023/05/05 04:24:46;;;;;;;4.00;2.00;;;;;;;12.74;76.01;99799.19;4966756;28;20109;-54
2023/05/05 04:27:12;;;;;;;7.20;2.17;;;;;;;12.75;75.17;99803.50;4961376;28;20082;-50
2023/05/05 04:29:39;;;;;;;5.05;1.65;;;;;;;12.75;75.88;99803.50;4960052;28;20540;-47
2023/05/05 04:32:06;;;;;;;5.28;1.52;;;;;;;12.73;76.07;99810.44;4962026;28;20097;-50
2023/05/05 04:34:32;;;;;;;6.40;2.13;;;;;;;12.74;75.91;99801.78;4961371;28;20150;-47
2023/05/05 04:36:59;;;;;;;6.07;2.85;;;;;;;12.75;76.12;99803.50;4960566;28;20078;-53
2023/05/05 04:39:26;;;;;;;4.65;2.47;;;;;;;12.76;76.30;99804.38;4962134;28;20519;-56
2023/05/05 04:41:52;;;;;;;5.28;2.50;;;;;;;12.76;75.75;99804.38;4962970;28;20137;-55
2023/05/05 04:44:19;;;;;;;6.38;2.45;;;;;;;12.76;76.68;99797.41;4964640;28;20602;-49
2023/05/05 04:46:45;;;;;;;5.80;1.92;;;;;;;12.78;75.49;99793.06;4972886;28;20302;-55
2023/05/05 04:49:12;;;;;;;5.72;2.67;;;;;;;12.78;75.63;99797.41;4959637;28;20047;-55
2023/05/05 04:51:41;;;;;;;4.53;1.77;;;;;;;12.78;76.08;99793.06;4960222;28;20750;-50
2023/05/05 04:54:07;;;;;;;9.40;2.15;;;;;;;12.79;76.27;99792.19;4973552;28;20608;-57
2023/05/05 04:56:34;;;;;;;4.47;1.83;;;;;;;12.78;75.42;99790.47;4959271;28;20740;-52
2023/05/05 04:59:01;;;;;;;5.63;2.15;;;;;;;12.77;74.99;99795.69;4960822;28;20047;-56
2023/05/05 05:01:28;;;;;;;5.32;1.27;;;;;;;12.74;76.15;99796.59;4957149;28;20077;-51
2023/05/05 05:03:54;;;;;;;6.28;2.33;;;;;;;12.72;74.94;99803.53;4973112;28;20254;-57
2023/05/05 05:06:21;;;;;;;7.13;2.42;;;;;;;12.71;75.14;99801.84;4964616;28;20047;-50
2023/05/05 05:08:49;;;;;;;6.90;2.33;;;;;;;12.71;75.63;99796.63;4960000;28;20047;-56
2023/05/05 05:11:15;;;;;;;5.05;2.10;;;;;;;12.74;75.18;99796.59;4958100;28;22088;-53
2023/05/05 05:13:42;;;;;;;5.60;3.38;;;;;;;12.74;75.54;99796.59;4967217;28;20424;-51
2023/05/05 05:16:08;;;;;;;6.90;2.10;;;;;;;12.74;76.34;99796.59;4967155;28;20446;-52
2023/05/05 05:18:35;;;;;;;7.78;2.30;;;;;;;12.73;75.32;99802.66;4966489;28;20521;-52
2023/05/05 05:21:02;;;;;;;3.42;2.03;;;;;;;12.72;76.64;99804.41;4974694;28;20556;-52
2023/05/05 05:23:29;;;;;;;5.88;1.80;;;;;;;12.75;75.15;99813.91;4988291;28;20129;-52
2023/05/05 05:25:56;;;;;;;5.60;2.17;;;;;;;12.74;76.29;99809.59;4984331;28;20224;-52
2023/05/05 05:28:22;;;;;;;5.90;2.28;;;;;;;12.76;76.52;99814.78;4964537;28;20078;-56
2023/05/05 05:30:49;;;;;;;8.95;2.47;;;;;;;12.78;75.60;99813.84;4962688;28;20058;-55
2023/05/05 05:33:16;;;;;;;7.60;2.42;;;;;;;12.80;76.56;99819.03;4978382;28;20077;-48
2023/05/05 05:35:42;;;;;;;8.32;2.25;;;;;;;12.88;75.78;99824.09;4985459;28;20055;-51
2023/05/05 05:38:09;;;;;;;4.07;1.83;;;;;;;12.93;75.48;99827.47;4980810;28;20509;-48
2023/05/05 05:40:35;;;;;;;6.93;2.72;;;;;;;12.97;76.29;99823.97;4984643;28;20152;-60
2023/05/05 05:43:03;;;;;;;6.10;2.35;;;;;;;13.00;76.49;99818.69;4987952;28;20046;-51
2023/05/05 05:45:29;;;;;;;6.15;1.98;;;;;;;13.03;76.11;99829.03;4983621;28;20074;-49
2023/05/05 05:47:56;;;;;;;5.00;1.88;;;;;;;13.05;76.12;99821.22;4975556;28;20066;-54
2023/05/05 05:50:25;;;;;;;4.35;2.00;;;;;;;13.02;75.49;99827.34;4980380;28;20074;-53
2023/05/05 05:52:52;;;;;;;5.25;2.47;;;;;;;13.02;75.78;99829.94;4979214;28;20129;-52
2023/05/05 05:55:19;;;;;;;6.00;2.00;;;;;;;12.99;76.15;99827.38;4982881;28;20112;-53
2023/05/05 05:57:46;;;;;;;6.95;2.13;;;;;;;13.03;76.25;99829.03;4988225;28;20078;-52
2023/05/05 06:00:14;;;;;;;4.45;1.58;;;;;;;13.04;75.78;99841.16;4992247;28;20050;-52
2023/05/05 06:02:41;;;;;;;5.88;2.10;;;;;;;13.09;75.79;99836.75;4978317;28;20117;-54
2023/05/05 06:05:08;;;;;;;6.32;1.80;;;;;;;13.14;75.80;99843.63;4984599;28;20058;-50
2023/05/05 06:07:35;;;;;;;4.72;1.33;;;;;;;13.19;76.71;99839.19;4980230;28;20062;-58
2023/05/05 06:10:01;;;;;;;7.93;2.25;;;;;;;13.24;75.96;99837.34;4983151;28;20090;-56
2023/05/05 06:12:48;;;;;;;5.90;2.55;;;;;;;13.32;76.65;99848.50;4980187;28;20046;-46
2023/05/05 06:15:14;;;;;;;4.20;1.85;;;;;;;13.42;76.07;99850.94;4978326;28;20104;-55
2023/05/05 06:17:41;;;;;;;6.18;1.92;;;;;;;13.45;76.82;99845.69;4981883;28;20113;-55
2023/05/05 06:20:08;;;;;;;7.10;3.45;;;;;;;13.47;75.48;99854.31;4978608;28;20394;-59
2023/05/05 06:22:35;;;;;;;6.85;2.05;;;;;;;13.49;75.70;99857.78;4974870;28;20046;-55
2023/05/05 06:25:02;;;;;;;4.90;1.88;;;;;;;13.54;75.62;99860.31;4975296;28;20054;-57
2023/05/05 06:27:28;;;;;;;4.95;2.05;;;;;;;13.59;75.04;99864.56;4975041;28;20137;-53
2023/05/05 06:29:55;;;;;;;5.57;2.53;;;;;;;13.65;75.22;99863.59;4977862;28;20082;-52
2023/05/05 06:32:21;;;;;;;6.05;1.98;;;;;;;13.70;75.55;99866.06;4972428;28;20054;-53
2023/05/05 06:34:48;;;;;;;9.02;2.50;;;;;;;13.75;75.35;99872.91;4976439;28;20161;-54
2023/05/05 06:37:15;;;;;;;9.05;1.85;;;;;;;13.82;75.55;99868.44;4977449;28;20070;-56
2023/05/05 06:39:41;;;;;;;9.70;1.60;;;;;;;13.87;75.06;99869.22;4970548;28;20121;-51
2023/05/05 06:42:08;;;;;;;6.22;2.50;;;;;;;13.91;75.66;99869.19;4976869;28;20353;-55
2023/05/05 06:44:35;;;;;;;7.55;1.67;;;;;;;13.96;74.79;99877.75;4977746;28;20458;-53
2023/05/05 06:47:02;;;;;;;9.23;3.08;;;;;;;14.09;75.18;99874.00;4976006;28;20113;-50
2023/05/05 06:49:29;;;;;;;7.85;2.30;;;;;;;14.20;74.48;99880.75;4978153;28;20054;-54
2023/05/05 06:51:55;;;;;;;7.05;2.40;;;;;;;14.29;74.43;99882.31;4976506;28;20078;-52
2023/05/05 06:54:22;;;;;;;6.20;2.17;;;;;;;14.40;74.25;99883.78;4975172;28;20050;-51
2023/05/05 06:56:48;;;;;;;6.57;1.98;;;;;;;14.52;74.62;99872.25;4972982;28;20129;-52
2023/05/05 06:59:15;;;;;;;5.63;1.70;;;;;;;14.58;74.00;99889.50;4979066;28;20133;-58
2023/05/05 07:01:42;;;;;;;8.32;2.85;;;;;;;14.65;73.90;99885.88;4976453;28;20078;-54
2023/05/05 07:04:08;;;;;;;5.43;1.88;;;;;;;14.71;73.43;99891.81;4977610;28;20179;-52
2023/05/05 07:06:35;;;;;;;6.53;2.88;;;;;;;14.77;73.47;99891.72;4978291;28;20050;-51
2023/05/05 07:09:03;;;;;;;6.00;2.13;;;;;;;14.85;73.35;99895.03;4976290;28;20050;-58
2023/05/05 07:11:29;;;;;;;7.85;2.42;;;;;;;14.90;72.85;99897.53;4978095;28;20046;-49
2023/05/05 07:13:56;;;;;;;8.18;3.00;;;;;;;14.95;72.86;99894.78;4983242;28;20089;-56
2023/05/05 07:16:23;;;;;;;6.80;3.33;;;;;;;14.98;72.82;99899.94;4981563;28;20046;-55
2023/05/05 07:18:50;;;;;;;5.93;2.35;;;;;;;15.00;72.49;99903.38;4979929;28;20055;-57
2023/05/05 07:21:17;;;;;;;6.88;2.55;;;;;;;15.00;72.33;99908.59;4979041;28;20042;-59
2023/05/05 07:23:45;;;;;;;7.45;3.20;;;;;;;15.00;72.89;99900.78;4974105;28;20062;-52
2023/05/05 07:26:11;;;;;;;7.88;3.22;;;;;;;15.04;73.05;99905.03;4976938;28;20703;-60
2023/05/05 07:28:38;;;;;;;9.57;3.05;;;;;;;15.04;72.38;99905.88;4977366;28;20145;-58
2023/05/05 07:31:04;;;;;;;9.13;3.40;;;;;;;14.99;72.37;99902.50;4976840;28;20073;-52
2023/05/05 07:33:31;;;;;;;13.32;4.55;;;;;;;14.98;72.67;99918.19;4981056;28;20399;-52
2023/05/05 07:35:57;;;;;;;10.77;3.58;;;;;;;14.96;72.49;99913.00;4984824;28;20085;-59
2023/05/05 07:38:27;;;;;;;8.65;2.65;;;;;;;14.94;72.29;99908.72;4981455;28;20579;-55
2023/05/05 07:40:54;;;;;;;4.85;2.28;;;;;;;14.93;72.67;99912.25;4980355;28;20085;-53
2023/05/05 07:43:21;;;;;;;6.53;2.17;;;;;;;14.92;72.16;99905.31;4981262;28;20758;-56
2023/05/05 07:45:48;;;;;;;6.43;1.88;;;;;;;14.92;72.46;99906.16;4986283;28;20058;-54
2023/05/05 07:48:15;;;;;;;7.43;3.53;;;;;;;14.90;72.64;99908.78;4985591;28;20504;-56
2023/05/05 07:50:41;;;;;;;4.80;1.77;;;;;;;14.95;72.66;99908.69;4989205;28;20050;-55
2023/05/05 07:53:08;;;;;;;4.90;2.25;;;;;;;15.03;72.26;99906.75;4990399;28;20948;-58
2023/05/05 07:55:40;;;;;;;8.30;1.55;;;;;;;15.10;72.27;99904.84;4990388;28;20043;-52
2023/05/05 07:58:07;;;;;;;5.25;1.67;;;;;;;15.14;72.46;99916.94;4984240;28;20093;-54
2023/05/05 08:00:34;;;;;;;3.40;1.40;;;;;;;15.18;72.41;99912.53;4983478;28;20147;-56
2023/05/05 08:03:01;;;;;;;10.68;1.98;;;;;;;15.25;72.12;99921.03;4987678;28;20054;-58
2023/05/05 08:05:28;;;;;;;4.22;1.80;;;;;;;15.30;72.42;99908.72;4988280;28;20054;-56
2023/05/05 08:07:56;;;;;;;4.38;1.67;;;;;;;15.35;71.70;99914.72;4988207;28;20221;-53
2023/05/05 08:10:26;;;;;;;3.95;1.88;;;;;;;15.38;72.03;99908.56;4988661;28;20050;-54
2023/05/05 08:12:53;;;;;;;4.63;1.90;;;;;;;15.40;71.49;99915.44;4988682;28;20100;-61
2023/05/05 08:15:20;;;;;;;5.35;1.73;;;;;;;15.46;71.62;99916.19;4982698;28;20556;-56
2023/05/05 08:17:49;;;;;;;6.43;1.67;;;;;;;15.49;71.41;99921.31;4987652;28;20985;-61
2023/05/05 08:20:16;;;;;;;3.72;1.75;;;;;;;15.53;71.28;99918.63;4987386;28;20185;-58
2023/05/05 08:22:44;;;;;;;7.18;1.30;;;;;;;15.52;71.26;99919.50;4986320;28;20086;-58
2023/05/05 08:25:11;;;;;;;7.25;1.92;;;;;;;15.52;71.17;99921.25;4987006;28;20116;-55
2023/05/05 08:27:41;;;;;;;5.90;1.70;;;;;;;15.54;71.03;99919.47;4986944;28;20059;-58
2023/05/05 08:30:09;;;;;;;6.13;1.75;;;;;;;15.57;70.90;99914.16;4970011;28;20058;-54
2023/05/05 08:32:38;;;;;;;5.65;1.92;;;;;;;15.62;71.28;99917.53;4986098;28;20089;-50
2023/05/05 08:35:05;;;;;;;7.30;2.08;;;;;;;15.68;70.75;99919.13;4987772;28;20242;-54
2023/05/05 08:37:33;;;;;;;3.17;1.50;;;;;;;15.70;70.91;99917.31;4987693;28;20536;-53
2023/05/05 08:40:00;;;;;;;3.33;1.27;;;;;;;15.68;70.51;99921.72;4989365;28;20042;-55
2023/05/05 08:42:28;;;;;;;3.72;1.75;;;;;;;15.69;70.10;99923.44;4991019;28;20486;-62
2023/05/05 08:45:06;;;;;;;4.30;1.85;;;;;;;15.64;70.27;99930.53;4985018;28;20078;-55
2023/05/05 08:47:35;;;;;;;6.88;1.90;;;;;;;15.63;70.31;99929.66;4986277;28;20137;-56
2023/05/05 08:50:04;;;;;;;5.40;2.55;;;;;;;15.63;70.43;99929.66;4985197;28;20053;-59
2023/05/05 08:52:42;;;;;;;7.00;1.55;;;;;;;15.70;70.28;99934.75;4988054;28;20051;-57
2023/05/05 08:57:55;;;;;;;4.47;2.65;;;;;;;15.81;69.70;99924.88;5065958;27;20403;-55
2023/05/05 09:00:25;;;;;;;4.20;2.65;;;;;;;15.90;69.77;99932.47;5037809;28;20540;-55
2023/05/05 09:02:54;;;;;;;4.38;3.22;;;;;;;16.02;69.72;99927.84;5047626;28;20091;-59
2023/05/05 09:05:22;;;;;;;7.68;3.17;;;;;;;16.08;69.15;99932.91;5038459;28;20049;-57
2023/05/05 09:07:49;;;;;;;5.07;4.07;;;;;;;16.23;69.39;99931.59;5041718;28;20080;-59
2023/05/05 09:10:17;;;;;;;4.97;3.10;;;;;;;16.42;69.99;99931.91;5044499;28;20052;-56
2023/05/05 09:12:44;;;;;;;3.42;2.65;;;;;;;16.65;69.71;99929.56;5045284;28;20424;-54
2023/05/05 09:15:13;;;;;;;6.63;3.08;;;;;;;16.90;68.87;99934.91;5041217;28;20053;-57
2023/05/05 09:17:40;;;;;;;7.95;3.53;;;;;;;17.12;68.85;99934.22;5050341;28;20055;-51
2023/05/05 09:20:12;;;;;;;4.25;2.75;;;;;;;17.26;68.59;99932.94;5074942;28;20052;-54
2023/05/05 09:22:42;;;;;;;6.93;3.38;;;;;;;17.38;67.78;99937.78;5059615;28;20065;-55
2023/05/05 09:25:11;;;;;;;3.35;2.28;;;;;;;17.50;67.44;99933.03;5064258;28;20053;-53
2023/05/05 09:27:41;;;;;;;2.78;2.33;;;;;;;17.57;66.70;99932.75;5062319;28;20622;-54
2023/05/05 09:30:09;;;;;;;4.72;2.20;;;;;;;17.67;65.92;99933.31;5054470;28;20072;-57
2023/05/05 09:32:46;;;;;;;5.22;2.47;;;;;;;17.78;65.85;99929.47;5051045;28;20071;-58
2023/05/05 09:35:13;;;;;;;7.15;3.28;;;;;;;17.94;65.82;99928.00;5062513;28;20544;-53
2023/05/05 09:37:40;;;;;;;4.95;3.53;;;;;;;18.09;65.28;99931.03;5052153;28;20077;-51
2023/05/05 09:40:08;;;;;;;4.97;3.42;;;;;;;18.13;64.68;99927.41;5058218;28;20083;-49
2023/05/05 09:42:36;;;;;;;6.13;2.83;;;;;;;18.27;64.44;99928.66;5056468;28;20138;-58
2023/05/05 09:47:55;;;;;;;3.97;2.17;;;;;;;18.62;63.06;99918.63;5031641;28;20394;-51
2023/05/05 09:50:28;;;;;;;3.67;1.30;;;;;;;18.73;62.36;99931.31;5007898;28;20050;-51
2023/05/05 09:52:58;;;;;;;3.30;1.75;;;;;;;18.93;62.98;99917.41;5014962;28;20053;-60
2023/05/05 09:55:25;;;;;;;4.90;1.45;;;;;;;19.09;62.21;99916.84;4999300;28;20077;-54
2023/05/05 09:57:52;;;;;;;3.75;1.00;;;;;;;19.27;61.51;99917.84;5005684;28;20048;-49
2023/05/05 10:00:19;;;;;;;1.70;0.90;;;;;;;19.43;60.74;99915.44;5016571;28;20144;-61
2023/05/05 10:02:46;;;;;;;1.85;1.17;;;;;;;19.55;60.44;99918.47;5017688;28;20413;-53
2023/05/05 10:05:16;;;;;;;2.03;1.02;;;;;;;19.55;59.78;99919.31;5017431;28;20104;-48
2023/05/05 10:07:45;;;;;;;4.00;1.08;;;;;;;19.51;59.54;99918.59;5013015;28;20180;-56
2023/05/05 10:10:14;;;;;;;3.70;0.80;;;;;;;19.48;59.54;99917.84;5009485;28;20085;-60
2023/05/05 10:12:42;;;;;;;3.75;1.33;;;;;;;19.48;59.68;99918.72;5012221;28;20050;-54
2023/05/05 10:15:10;;;;;;;4.03;1.20;;;;;;;19.60;59.68;99912.13;5011881;28;20390;-52
2023/05/05 10:17:54;;;;;;;6.70;1.08;;;;;;;19.79;59.85;99911.28;5017065;28;20108;-52
2023/05/05 10:20:35;;;;;;;3.45;1.42;;;;;;;19.91;60.04;99915.16;5005655;28;20053;-56
2023/05/05 10:23:05;;;;;;;2.83;1.05;;;;;;;20.00;59.90;99898.19;5007241;28;20053;-48
2023/05/05 10:25:41;;;;;;;6.65;1.60;;;;;;;20.23;59.77;99897.13;5007131;28;20555;-61
2023/05/05 10:28:15;;;;;;;5.28;1.60;;;;;;;20.43;59.22;99895.34;5004097;28;20568;-55
2023/05/05 10:30:44;;;;;;;4.55;1.40;;;;;;;20.74;59.76;99903.59;5010442;28;20046;-53
2023/05/05 10:33:16;;;;;;;3.88;1.20;;;;;;;20.90;58.09;99882.66;5005237;28;20560;-50
2023/05/05 10:36:01;;;;;;;2.70;1.65;;;;;;;20.79;57.49;99891.06;5010390;28;20489;-52
2023/05/05 10:38:29;;;;;;;2.72;1.13;;;;;;;20.85;57.59;99889.91;5014453;28;20073;-54
2023/05/05 10:40:59;;;;;;;1.98;1.42;;;;;;;20.98;57.77;99893.69;5006750;28;20081;-48
2023/05/05 10:43:28;;;;;;;3.10;1.00;;;;;;;21.05;57.28;99881.91;5012423;28;20723;-57
2023/05/05 10:45:57;;;;;;;2.28;1.50;;;;;;;21.15;57.89;99886.75;5014000;28;20049;-55
2023/05/05 10:48:34;;;;;;;3.17;0.90;;;;;;;21.25;57.83;99882.72;5010193;28;20049;-55
2023/05/05 10:51:13;;;;;;;4.07;1.10;;;;;;;21.29;56.45;99883.41;5012420;28;20624;-58
2023/05/05 10:53:59;;;;;;;2.10;0.73;;;;;;;21.27;56.60;99887.88;5010034;28;20839;-55
2023/05/05 10:56:31;;;;;;;2.58;1.08;;;;;;;21.13;55.56;99888.59;5014219;28;20662;-59
2023/05/05 10:58:58;;;;;;;3.47;2.10;;;;;;;20.91;55.26;99900.19;5000043;28;20585;-53
2023/05/05 11:01:30;;;;;;;5.18;1.73;;;;;;;20.77;55.94;99888.50;5004542;28;20077;-58
2023/05/05 11:10:02;;;;;;;3.67;1.55;;;;;;;21.02;57.80;99868.06;5059664;27;20412;-56
2023/05/05 11:12:30;;;;;;;2.55;0.63;;;;;;;21.37;57.27;99869.84;5040320;28;20118;-59
2023/05/05 11:15:36;;;;;;;1.52;0.65;;;;;;;21.79;57.36;99871.22;5044234;28;20060;-50
2023/05/05 11:18:05;;;;;;;1.77;0.63;;;;;;;22.17;56.10;99875.38;5043746;28;20400;-52
2023/05/05 11:25:50;;;;;;;1.25;0.60;;;;;;;22.57;53.84;99867.09;5057741;28;20379;-53
2023/05/05 11:28:19;;;;;;;1.98;0.82;;;;;;;22.73;53.19;99863.59;5006531;28;20050;-50
2023/05/05 11:33:34;;;;;;;2.60;2.10;;;;;;;22.90;50.33;99861.78;5073715;27;20398;-52
2023/05/05 11:36:11;;;;;;;2.38;2.17;;;;;;;22.72;51.36;99859.22;5051532;28;20072;-55
2023/05/05 11:44:29;;;;;;;1.70;0.80;;;;;;;22.93;51.43;99857.16;5042336;28;20400;-45
2023/05/05 11:49:35;;;;;;;0.95;0.85;;;;;;;23.26;50.26;99863.19;5040386;27;20398;-55
2023/05/05 11:52:05;;;;;;;2.35;1.52;;;;;;;23.33;50.44;99859.25;5042589;28;20049;-48
2023/05/05 11:54:34;;;;;;;2.20;0.50;;;;;;;23.42;50.39;99857.03;5040457;28;20119;-50
2023/05/05 11:57:04;;;;;;;1.50;1.13;;;;;;;23.39;49.45;99857.19;5071973;28;20050;-50
2023/05/05 11:59:31;;;;;;;2.05;1.20;;;;;;;23.35;49.15;99854.78;5037227;28;20053;-49
2023/05/05 12:01:58;;;;;;;1.88;1.17;;;;;;;23.36;49.80;99853.81;5038248;28;20045;-50
2023/05/05 12:04:25;;;;;;;2.38;0.93;;;;;;;23.28;49.56;99848.13;5032907;28;20437;-51
2023/05/05 12:06:54;;;;;;;2.50;2.28;;;;;;;23.23;48.99;99852.81;5041659;28;20568;-46
2023/05/05 12:09:22;;;;;;;1.98;1.55;;;;;;;23.13;48.87;99851.66;5041268;28;20390;-50
2023/05/05 12:14:28;;;;;;;2.13;1.92;;;;;;;23.08;48.14;99849.28;5046287;28;20381;-48
2023/05/05 12:16:57;;;;;;;2.13;1.67;;;;;;;23.03;48.67;99846.91;5023206;28;20056;-48
2023/05/05 12:19:28;;;;;;;2.47;2.03;;;;;;;22.97;48.96;99847.28;5021850;28;20096;-48
2023/05/05 12:21:55;;;;;;;2.95;2.58;;;;;;;22.86;48.43;99847.88;5020670;28;20093;-50
2023/05/05 12:24:22;;;;;;;2.25;1.95;;;;;;;22.84;47.99;99847.13;5022363;28;20149;-46
2023/05/05 12:26:49;;;;;;;1.20;0.93;;;;;;;22.87;48.27;99846.09;5022692;28;20739;-49
2023/05/05 12:29:24;;;;;;;4.95;2.30;;;;;;;22.84;47.61;99842.69;5023171;28;20123;-49
2023/05/05 12:31:50;;;;;;;2.83;1.88;;;;;;;22.93;48.39;99841.31;5021873;28;20085;-50
2023/05/05 12:34:17;;;;;;;2.38;2.28;;;;;;;23.07;48.85;99844.94;5023222;28;20120;-51